createdAt,value
2019-06-10T00:00:31.234Z,1018.42
2019-06-10T00:01:33.766Z,1018.42
2019-06-10T00:02:38.135Z,1018.44
2019-06-10T00:03:42.461Z,1018.43
2019-06-10T00:04:46.882Z,1018.45
2019-06-10T00:05:51.766Z,1018.44
2019-06-10T00:06:55.778Z,1018.44
2019-06-10T00:08:02.394Z,1018.41
2019-06-10T00:09:06.426Z,1018.42
2019-06-10T00:10:10.654Z,1018.38
2019-06-10T00:11:12.805Z,1018.38
2019-06-10T00:12:17.130Z,1018.37
2019-06-10T00:13:21.430Z,1018.38
2019-06-10T00:14:25.892Z,1018.40
2019-06-10T00:15:31.374Z,1018.36
2019-06-10T00:16:34.554Z,1018.34
2019-06-10T00:17:53.127Z,1018.30
2019-06-10T00:18:45.757Z,1018.26
2019-06-10T00:19:47.514Z,1018.26
2019-06-10T00:20:51.793Z,1018.28
2019-06-10T00:21:57.324Z,1018.24
2019-06-10T00:23:02.506Z,1018.28
2019-06-10T00:24:05.769Z,1018.26
2019-06-10T00:25:09.137Z,1018.21
2019-06-10T00:26:13.514Z,1018.19
2019-06-10T00:27:17.780Z,1018.15
2019-06-10T00:28:22.111Z,1018.12
2019-06-10T00:29:26.414Z,1018.08
2019-06-10T00:30:31.350Z,1018.04
2019-06-10T00:31:35.086Z,1017.98
2019-06-10T00:32:41.193Z,1017.97
2019-06-10T00:33:43.897Z,1017.95
2019-06-10T00:34:50.410Z,1017.93
2019-06-10T00:35:52.518Z,1017.93
2019-06-10T00:36:56.814Z,1017.93
2019-06-10T00:38:02.558Z,1017.96
2019-06-10T00:39:06.843Z,1017.98
2019-06-10T00:40:13.728Z,1017.98
2019-06-10T00:41:14.379Z,1017.98
2019-06-10T00:42:21.142Z,1017.97
2019-06-10T00:43:22.808Z,1017.96
2019-06-10T00:44:27.123Z,1017.93
2019-06-10T00:45:31.655Z,1017.92
2019-06-10T00:46:35.931Z,1017.96
2019-06-10T00:47:41.437Z,1017.94
2019-06-10T00:48:44.576Z,1017.92
2019-06-10T00:49:51.292Z,1017.91
2019-06-10T00:50:53.271Z,1017.90
2019-06-10T00:52:01.600Z,1017.89
2019-06-10T00:53:05.879Z,1017.90
2019-06-10T00:54:10.319Z,1017.92
2019-06-10T00:55:13.922Z,1017.91
2019-06-10T00:56:17.405Z,1017.95
2019-06-10T00:57:21.697Z,1017.93
2019-06-10T00:58:26.080Z,1017.86
2019-06-10T00:59:31.187Z,1017.86
2019-06-10T01:00:34.840Z,1017.86
2019-06-10T01:01:41.405Z,1017.86
2019-06-10T01:02:43.594Z,1017.84
2019-06-10T01:03:47.949Z,1017.83
2019-06-10T01:04:52.314Z,1017.82
2019-06-10T01:05:56.635Z,1017.79
2019-06-10T01:07:02.370Z,1017.79
2019-06-10T01:08:06.597Z,1017.76
2019-06-10T01:09:12.770Z,1017.74
2019-06-10T01:10:14.666Z,1017.75
2019-06-10T01:11:25.841Z,1017.74
2019-06-10T01:12:23.031Z,1017.73
2019-06-10T01:13:27.436Z,1017.72
2019-06-10T01:14:32.051Z,1017.72
2019-06-10T01:15:36.123Z,1017.67
2019-06-10T01:16:41.178Z,1017.64
2019-06-10T01:17:44.978Z,1017.66
2019-06-10T01:18:51.077Z,1017.67
2019-06-10T01:19:53.735Z,1017.66
2019-06-10T01:20:58.104Z,1017.66
2019-06-10T01:22:02.489Z,1017.61
2019-06-10T01:23:07.036Z,1017.59
2019-06-10T01:24:12.097Z,1017.56
2019-06-10T01:25:15.594Z,1017.54
2019-06-10T01:26:21.618Z,1017.54
2019-06-10T01:27:24.334Z,1017.52
2019-06-10T01:28:31.199Z,1017.52
2019-06-10T01:29:33.135Z,1017.51
2019-06-10T01:30:37.528Z,1017.48
2019-06-10T01:31:42.108Z,1017.48
2019-06-10T01:32:46.328Z,1017.47
2019-06-10T01:33:51.341Z,1017.44
2019-06-10T01:34:55.041Z,1017.46
2019-06-10T01:36:00.746Z,1017.46
2019-06-10T01:37:03.901Z,1017.47
2019-06-10T01:38:08.357Z,1017.47
2019-06-10T01:39:14.741Z,1017.48
2019-06-10T01:40:18.001Z,1017.44
2019-06-10T01:41:21.629Z,1017.43
2019-06-10T01:42:25.986Z,1017.39
2019-06-10T01:43:32.003Z,1017.37
2019-06-10T01:44:34.735Z,1017.36
2019-06-10T01:45:41.596Z,1017.33
2019-06-10T01:46:43.545Z,1017.32
2019-06-10T01:47:47.924Z,1017.29
2019-06-10T01:48:52.397Z,1017.30
2019-06-10T01:49:56.770Z,1017.31
2019-06-10T01:51:01.796Z,1017.30
2019-06-10T01:52:05.457Z,1017.28
2019-06-10T01:53:12.667Z,1017.28
2019-06-10T01:54:15.596Z,1017.26
2019-06-10T01:55:18.735Z,1017.25
2019-06-10T01:56:23.032Z,1017.23
2019-06-10T01:57:27.393Z,1017.21
2019-06-10T01:58:31.798Z,1017.21
2019-06-10T01:59:36.154Z,1017.21
2019-06-10T02:00:41.817Z,1017.22
2019-06-10T02:01:44.887Z,1017.20
2019-06-10T02:02:52.205Z,1017.20
2019-06-10T02:03:53.706Z,1017.17
2019-06-10T02:04:58.180Z,1017.18
2019-06-10T02:06:02.600Z,1017.18
2019-06-10T02:07:06.924Z,1017.18
2019-06-10T02:08:12.987Z,1017.21
2019-06-10T02:09:17.226Z,1017.17
2019-06-10T02:10:22.815Z,1017.17
2019-06-10T02:11:24.499Z,1017.14
2019-06-10T02:12:31.332Z,1017.09
2019-06-10T02:13:33.616Z,1017.07
2019-06-10T02:14:37.570Z,1017.02
2019-06-10T02:15:41.922Z,1017.03
2019-06-10T02:16:46.266Z,1017.01
2019-06-10T02:17:51.049Z,1017.02
2019-06-10T02:19:00.409Z,1017.00
2019-06-10T02:20:01.163Z,1016.96
2019-06-10T02:21:03.833Z,1016.94
2019-06-10T02:22:08.204Z,1016.89
2019-06-10T02:23:14.119Z,1016.82
2019-06-10T02:24:17.637Z,1016.78
2019-06-10T02:25:22.915Z,1016.78
2019-06-10T02:26:25.905Z,1016.80
2019-06-10T02:27:31.491Z,1016.80
2019-06-10T02:28:34.720Z,1016.80
2019-06-10T02:29:41.112Z,1016.77
2019-06-10T02:30:50.761Z,1016.78
2019-06-10T02:31:47.835Z,1016.81
2019-06-10T02:32:52.519Z,1016.80
2019-06-10T02:33:56.673Z,1016.77
2019-06-10T02:35:08.553Z,1016.73
2019-06-10T02:36:05.532Z,1016.70
2019-06-10T02:37:13.646Z,1016.69
2019-06-10T02:38:19.868Z,1016.71
2019-06-10T02:39:25.869Z,1016.69
2019-06-10T02:40:31.368Z,1016.61
2019-06-10T02:41:31.826Z,1016.56
2019-06-10T02:42:35.508Z,1016.53
2019-06-10T02:43:37.951Z,1016.51
2019-06-10T02:44:40.502Z,1016.47
2019-06-10T02:45:44.953Z,1016.44
2019-06-10T02:46:49.358Z,1016.43
2019-06-10T02:47:53.661Z,1016.39
2019-06-10T02:49:19.892Z,1016.35
2019-06-10T02:50:07.327Z,1016.32
2019-06-10T02:51:06.880Z,1016.34
2019-06-10T02:52:13.919Z,1016.46
2019-06-10T02:53:17.209Z,1016.49
2019-06-10T02:54:22.999Z,1016.42
2019-06-10T02:55:30.542Z,1016.38
2019-06-10T02:56:32.133Z,1016.36
2019-06-10T02:57:39.822Z,1016.36
2019-06-10T02:58:39.499Z,1016.34
2019-06-10T02:59:43.546Z,1016.31
2019-06-10T03:00:48.917Z,1016.28
2019-06-10T03:01:53.449Z,1016.25
2019-06-10T03:02:55.120Z,1016.22
2019-06-10T03:03:59.468Z,1016.19
2019-06-10T03:05:04.757Z,1016.17
2019-06-10T03:06:09.052Z,1016.13
2019-06-10T03:07:13.773Z,1016.11
2019-06-10T03:08:18.553Z,1016.09
2019-06-10T03:09:26.422Z,1016.08
2019-06-10T03:10:32.382Z,1016.05
2019-06-10T03:11:35.669Z,1016.01
2019-06-10T03:12:34.566Z,1015.98
2019-06-10T03:13:38.943Z,1015.91
2019-06-10T03:14:43.388Z,1015.90
2019-06-10T03:15:47.821Z,1015.86
2019-06-10T03:16:52.755Z,1015.83
2019-06-10T03:17:56.492Z,1015.82
2019-06-10T03:19:02.906Z,1015.85
2019-06-10T03:20:05.245Z,1015.82
2019-06-10T03:21:09.633Z,1015.75
2019-06-10T03:22:14.080Z,1015.74
2019-06-10T03:23:18.520Z,1015.72
2019-06-10T03:24:25.099Z,1015.70
2019-06-10T03:25:27.753Z,1015.67
2019-06-10T03:26:32.271Z,1015.65
2019-06-10T03:27:35.996Z,1015.64
2019-06-10T03:28:42.570Z,1015.64
2019-06-10T03:29:44.761Z,1015.63
2019-06-10T03:30:54.175Z,1015.63
2019-06-10T03:31:55.273Z,1015.60
2019-06-10T03:32:57.908Z,1015.56
2019-06-10T03:34:05.000Z,1015.55
2019-06-10T03:35:06.664Z,1015.56
2019-06-10T03:36:12.392Z,1015.52
2019-06-10T03:37:16.324Z,1015.51
2019-06-10T03:38:20.866Z,1015.52
2019-06-10T03:39:26.884Z,1015.51
2019-06-10T03:40:28.636Z,1015.51
2019-06-10T03:41:33.004Z,1015.47
2019-06-10T03:42:37.357Z,1015.48
2019-06-10T03:43:43.010Z,1015.48
2019-06-10T03:44:46.166Z,1015.49
2019-06-10T03:45:53.048Z,1015.53
2019-06-10T03:46:54.980Z,1015.56
2019-06-10T03:47:59.324Z,1015.53
2019-06-10T03:49:03.694Z,1015.52
2019-06-10T03:50:08.057Z,1015.52
2019-06-10T03:51:12.861Z,1015.51
2019-06-10T03:52:17.166Z,1015.48
2019-06-10T03:53:23.979Z,1015.43
2019-06-10T03:54:28.211Z,1015.41
2019-06-10T03:55:30.038Z,1015.40
2019-06-10T03:56:34.425Z,1015.35
2019-06-10T03:57:38.901Z,1015.38
2019-06-10T03:58:43.381Z,1015.36
2019-06-10T03:59:47.600Z,1015.37
2019-06-10T04:00:52.325Z,1015.37
2019-06-10T04:01:56.532Z,1015.38
2019-06-10T04:03:02.716Z,1015.36
2019-06-10T04:04:05.162Z,1015.33
2019-06-10T04:05:09.545Z,1015.28
2019-06-10T04:06:13.928Z,1015.26
2019-06-10T04:07:20.128Z,1015.25
2019-06-10T04:08:24.885Z,1015.27
2019-06-10T04:09:27.592Z,1015.27
2019-06-10T04:10:32.465Z,1015.28
2019-06-10T04:11:35.815Z,1015.30
2019-06-10T04:12:40.221Z,1015.28
2019-06-10T04:13:44.573Z,1015.27
2019-06-10T04:14:48.968Z,1015.26
2019-06-10T04:15:53.525Z,1015.23
2019-06-10T04:16:57.720Z,1015.22
2019-06-10T04:18:03.947Z,1015.22
2019-06-10T04:19:06.528Z,1015.22
2019-06-10T04:20:13.229Z,1015.21
2019-06-10T04:21:15.274Z,1015.19
2019-06-10T04:22:19.669Z,1015.17
2019-06-10T04:23:25.470Z,1015.17
2019-06-10T04:24:28.707Z,1015.15
2019-06-10T04:25:32.840Z,1015.09
2019-06-10T04:26:37.233Z,1015.06
2019-06-10T04:27:42.470Z,1015.04
2019-06-10T04:28:46.012Z,1015.04
2019-06-10T04:29:52.420Z,1015.04
2019-06-10T04:30:54.762Z,1015.05
2019-06-10T04:31:59.151Z,1015.06
2019-06-10T04:33:03.516Z,1015.05
2019-06-10T04:34:07.906Z,1015.07
2019-06-10T04:35:12.725Z,1015.07
2019-06-10T04:36:16.666Z,1015.03
2019-06-10T04:37:23.385Z,1015.00
2019-06-10T04:38:26.354Z,1014.95
2019-06-10T04:39:29.772Z,1014.90
2019-06-10T04:40:34.160Z,1014.84
2019-06-10T04:41:38.534Z,1014.83
2019-06-10T04:42:43.573Z,1014.84
2019-06-10T04:43:47.435Z,1014.81
2019-06-10T04:44:52.544Z,1014.79
2019-06-10T04:45:56.168Z,1014.79
2019-06-10T04:47:02.620Z,1014.76
2019-06-10T04:48:04.949Z,1014.77
2019-06-10T04:49:09.312Z,1014.76
2019-06-10T04:50:24.785Z,1014.75
2019-06-10T04:51:18.685Z,1014.72
2019-06-10T04:52:23.610Z,1014.70
2019-06-10T04:53:28.285Z,1014.74
2019-06-10T04:54:34.335Z,1014.74
2019-06-10T04:55:37.827Z,1014.74
2019-06-10T04:56:42.769Z,1014.72
2019-06-10T04:57:46.513Z,1014.68
2019-06-10T04:58:52.582Z,1014.68
2019-06-10T04:59:55.283Z,1014.69
2019-06-10T05:00:59.631Z,1014.73
2019-06-10T05:02:05.710Z,1014.70
2019-06-10T05:03:08.434Z,1014.73
2019-06-10T05:04:12.828Z,1014.79
2019-06-10T05:05:17.191Z,1014.81
2019-06-10T05:06:23.767Z,1014.83
2019-06-10T05:07:27.946Z,1014.86
2019-06-10T05:08:30.337Z,1014.86
2019-06-10T05:09:34.732Z,1014.89
2019-06-10T05:10:39.074Z,1014.86
2019-06-10T05:11:43.450Z,1014.83
2019-06-10T05:12:47.821Z,1014.82
2019-06-10T05:13:53.309Z,1014.81
2019-06-10T05:14:56.589Z,1014.80
2019-06-10T05:16:03.344Z,1014.79
2019-06-10T05:17:05.338Z,1014.80
2019-06-10T05:18:09.716Z,1014.76
2019-06-10T05:19:14.111Z,1014.75
2019-06-10T05:20:19.715Z,1014.74
2019-06-10T05:21:25.095Z,1014.70
2019-06-10T05:22:28.425Z,1014.70
2019-06-10T05:23:32.843Z,1014.71
2019-06-10T05:24:36.054Z,1014.69
2019-06-10T05:25:42.646Z,1014.67
2019-06-10T05:26:44.811Z,1014.65
2019-06-10T05:27:49.198Z,1014.68
2019-06-10T05:28:53.598Z,1014.66
2019-06-10T05:29:57.957Z,1014.68
2019-06-10T05:31:02.996Z,1014.69
2019-06-10T05:32:06.728Z,1014.76
2019-06-10T05:33:13.321Z,1014.75
2019-06-10T05:34:15.507Z,1014.78
2019-06-10T05:35:21.020Z,1014.77
2019-06-10T05:36:27.504Z,1014.73
2019-06-10T05:37:29.332Z,1014.70
2019-06-10T05:38:35.333Z,1014.67
2019-06-10T05:39:37.399Z,1014.65
2019-06-10T05:40:42.719Z,1014.65
2019-06-10T05:41:46.113Z,1014.65
2019-06-10T05:42:52.746Z,1014.66
2019-06-10T05:43:55.003Z,1014.63
2019-06-10T05:44:59.376Z,1014.64
2019-06-10T05:46:03.797Z,1014.64
2019-06-10T05:47:08.152Z,1014.66
2019-06-10T05:48:16.614Z,1014.67
2019-06-10T05:49:16.920Z,1014.67
2019-06-10T05:50:22.483Z,1014.68
2019-06-10T05:51:26.406Z,1014.69
2019-06-10T05:52:31.426Z,1014.67
2019-06-10T05:53:35.542Z,1014.63
2019-06-10T05:54:38.907Z,1014.66
2019-06-10T05:55:43.331Z,1014.65
2019-06-10T05:56:47.716Z,1014.68
2019-06-10T05:57:53.268Z,1014.73
2019-06-10T05:58:56.526Z,1014.69
2019-06-10T06:00:10.734Z,1014.72
2019-06-10T06:01:05.316Z,1014.70
2019-06-10T06:02:09.684Z,1014.68
2019-06-10T06:03:14.080Z,1014.65
2019-06-10T06:04:18.488Z,1014.65
2019-06-10T06:05:23.894Z,1014.58
2019-06-10T06:06:27.287Z,1014.63
2019-06-10T06:07:33.879Z,1014.62
2019-06-10T06:08:36.091Z,1014.64
2019-06-10T06:09:42.578Z,1014.65
2019-06-10T06:10:44.897Z,1014.66
2019-06-10T06:11:49.270Z,1014.68
2019-06-10T06:12:53.647Z,1014.67
2019-06-10T06:13:58.062Z,1014.71
2019-06-10T06:15:02.556Z,1014.68
2019-06-10T06:16:06.899Z,1014.66
2019-06-10T06:17:12.718Z,1014.66
2019-06-10T06:18:15.679Z,1014.64
2019-06-10T06:19:20.102Z,1014.64
2019-06-10T06:20:25.084Z,1014.62
2019-06-10T06:21:32.446Z,1014.57
2019-06-10T06:22:35.520Z,1014.57
2019-06-10T06:23:38.282Z,1014.55
2019-06-10T06:24:42.791Z,1014.53
2019-06-10T06:25:47.053Z,1014.50
2019-06-10T06:26:53.253Z,1014.49
2019-06-10T06:27:55.325Z,1014.49
2019-06-10T06:29:02.104Z,1014.48
2019-06-10T06:30:11.397Z,1014.48
2019-06-10T06:31:08.549Z,1014.47
2019-06-10T06:32:13.288Z,1014.49
2019-06-10T06:33:17.326Z,1014.46
2019-06-10T06:34:22.543Z,1014.46
2019-06-10T06:35:26.406Z,1014.47
2019-06-10T06:36:32.908Z,1014.43
2019-06-10T06:37:37.705Z,1014.42
2019-06-10T06:38:39.262Z,1014.40
2019-06-10T06:39:43.652Z,1014.39
2019-06-10T06:40:53.756Z,1014.37
2019-06-10T06:41:54.539Z,1014.36
2019-06-10T06:42:58.899Z,1014.36
2019-06-10T06:44:03.268Z,1014.34
2019-06-10T06:45:07.639Z,1014.35
2019-06-10T06:46:12.846Z,1014.33
2019-06-10T06:47:16.434Z,1014.31
2019-06-10T06:48:22.741Z,1014.29
2019-06-10T06:49:25.249Z,1014.26
2019-06-10T06:50:30.836Z,1014.22
2019-06-10T06:51:49.510Z,1014.21
2019-06-10T06:53:12.579Z,1014.19
2019-06-10T06:53:51.699Z,1014.20
2019-06-10T06:54:49.302Z,1014.19
2019-06-10T06:55:55.990Z,1014.19
2019-06-10T06:56:58.095Z,1014.20
2019-06-10T06:58:03.384Z,1014.17
2019-06-10T06:59:06.883Z,1014.15
2019-06-10T07:00:37.349Z,1014.09
2019-06-10T07:01:15.762Z,1014.06
2019-06-10T07:02:22.566Z,1014.08
2019-06-10T07:03:24.526Z,1014.04
2019-06-10T07:04:29.641Z,1014.05
2019-06-10T07:05:35.508Z,1014.05
2019-06-10T07:06:38.632Z,1014.05
2019-06-10T07:07:43.322Z,1014.04
2019-06-10T07:09:00.414Z,1014.03
2019-06-10T07:09:52.659Z,1014.02
2019-06-10T07:10:55.435Z,1013.99
2019-06-10T07:12:02.375Z,1013.93
2019-06-10T07:13:04.220Z,1013.91
2019-06-10T07:14:10.169Z,1013.88
2019-06-10T07:15:13.004Z,1013.90
2019-06-10T07:16:17.383Z,1013.89
2019-06-10T07:17:22.736Z,1013.90
2019-06-10T07:18:26.225Z,1013.92
2019-06-10T07:19:33.986Z,1013.87
2019-06-10T07:20:37.631Z,1013.84
2019-06-10T07:21:58.394Z,1013.79
2019-06-10T07:22:46.625Z,1013.78
2019-06-10T07:23:48.288Z,1013.68
2019-06-10T07:24:53.035Z,1013.64
2019-06-10T07:25:57.038Z,1013.64
2019-06-10T07:27:02.724Z,1013.62
2019-06-10T07:28:05.902Z,1013.60
2019-06-10T07:29:13.020Z,1013.59
2019-06-10T07:30:15.139Z,1013.58
2019-06-10T07:31:24.114Z,1013.51
2019-06-10T07:32:23.599Z,1013.51
2019-06-10T07:33:28.019Z,1013.52
2019-06-10T07:34:34.000Z,1013.51
2019-06-10T07:35:37.286Z,1013.52
2019-06-10T07:36:43.555Z,1013.48
2019-06-10T07:37:46.174Z,1013.48
2019-06-10T07:38:53.578Z,1013.45
2019-06-10T07:39:54.702Z,1013.45
2019-06-10T07:40:59.127Z,1013.47
2019-06-10T07:42:03.536Z,1013.40
2019-06-10T07:43:07.966Z,1013.41
2019-06-10T07:44:12.602Z,1013.44
2019-06-10T07:45:16.795Z,1013.41
2019-06-10T07:46:22.977Z,1013.42
2019-06-10T07:47:25.631Z,1013.36
2019-06-10T07:48:30.043Z,1013.36
2019-06-10T07:49:35.381Z,1013.32
2019-06-10T07:50:39.327Z,1013.27
2019-06-10T07:51:46.130Z,1013.26
2019-06-10T07:52:47.668Z,1013.29
2019-06-10T07:53:52.792Z,1013.29
2019-06-10T07:54:56.713Z,1013.25
2019-06-10T07:56:03.246Z,1013.27
2019-06-10T07:57:05.528Z,1013.29
2019-06-10T07:58:13.082Z,1013.28
2019-06-10T07:59:16.522Z,1013.30
2019-06-10T08:00:22.722Z,1013.31
2019-06-10T08:01:25.325Z,1013.31
2019-06-10T08:02:32.177Z,1013.35
2019-06-10T08:03:35.272Z,1013.34
2019-06-10T08:04:39.838Z,1013.33
2019-06-10T08:05:45.062Z,1013.32
2019-06-10T08:06:49.897Z,1013.32
2019-06-10T08:07:54.744Z,1013.32
2019-06-10T08:08:56.613Z,1013.36
2019-06-10T08:10:02.907Z,1013.41
2019-06-10T08:11:05.426Z,1013.43
2019-06-10T08:12:09.852Z,1013.46
2019-06-10T08:13:14.289Z,1013.48
2019-06-10T08:14:18.848Z,1013.46
2019-06-10T08:15:23.256Z,1013.45
2019-06-10T08:16:27.668Z,1013.44
2019-06-10T08:17:32.810Z,1013.45
2019-06-10T08:18:48.589Z,1013.44
2019-06-10T08:19:46.238Z,1013.41
2019-06-10T08:20:45.517Z,1013.36
2019-06-10T08:21:50.017Z,1013.34
2019-06-10T08:22:57.629Z,1013.28
2019-06-10T08:23:58.933Z,1013.26
2019-06-10T08:25:04.865Z,1013.25
2019-06-10T08:26:07.757Z,1013.26
2019-06-10T08:27:12.194Z,1013.24
2019-06-10T08:28:16.662Z,1013.24
2019-06-10T08:29:23.227Z,1013.25
2019-06-10T08:30:27.544Z,1013.26
2019-06-10T08:31:29.946Z,1013.32
2019-06-10T08:32:35.964Z,1013.26
2019-06-10T08:33:39.068Z,1013.25
2019-06-10T08:34:45.012Z,1013.24
2019-06-10T08:35:56.391Z,1013.25
2019-06-10T08:36:54.472Z,1013.19
2019-06-10T08:37:56.535Z,1013.16
2019-06-10T08:39:03.203Z,1013.15
2019-06-10T08:40:05.446Z,1013.14
2019-06-10T08:41:12.095Z,1013.16
2019-06-10T08:42:14.270Z,1013.15
2019-06-10T08:43:18.714Z,1013.14
2019-06-10T08:44:23.209Z,1013.15
2019-06-10T08:45:27.611Z,1013.11
2019-06-10T08:46:32.989Z,1013.13
2019-06-10T08:47:37.064Z,1013.13
2019-06-10T08:48:43.417Z,1013.13
2019-06-10T08:49:47.299Z,1013.13
2019-06-10T08:50:50.740Z,1013.16
2019-06-10T08:51:54.285Z,1013.18
2019-06-10T08:53:10.434Z,1013.24
2019-06-10T08:54:03.458Z,1013.24
2019-06-10T08:55:07.433Z,1013.25
2019-06-10T08:56:13.048Z,1013.25
2019-06-10T08:57:16.236Z,1013.24
2019-06-10T08:58:23.068Z,1013.22
2019-06-10T08:59:25.054Z,1013.20
2019-06-10T09:00:29.531Z,1013.18
2019-06-10T09:01:34.019Z,1013.19
2019-06-10T09:02:39.762Z,1013.18
2019-06-10T09:03:47.427Z,1013.18
2019-06-10T09:04:50.326Z,1013.16
2019-06-10T09:05:53.931Z,1013.17
2019-06-10T09:06:56.214Z,1013.15
2019-06-10T09:08:02.824Z,1013.14
2019-06-10T09:09:05.172Z,1013.13
2019-06-10T09:10:09.552Z,1013.13
2019-06-10T09:11:14.005Z,1013.09
2019-06-10T09:12:30.349Z,1013.11
2019-06-10T09:13:22.841Z,1013.12
2019-06-10T09:14:27.270Z,1013.13
2019-06-10T09:15:32.490Z,1013.13
2019-06-10T09:16:36.268Z,1013.16
2019-06-10T09:17:44.371Z,1013.16
2019-06-10T09:18:48.021Z,1013.13
2019-06-10T09:19:51.287Z,1013.16
2019-06-10T09:20:56.096Z,1013.11
2019-06-10T09:21:58.484Z,1013.08
2019-06-10T09:23:18.171Z,1013.07
2019-06-10T09:24:07.412Z,1013.06
2019-06-10T09:25:12.382Z,1013.02
2019-06-10T09:26:16.307Z,1013.01
2019-06-10T09:27:26.090Z,1013.04
2019-06-10T09:28:25.159Z,1013.07
2019-06-10T09:29:29.578Z,1013.10
2019-06-10T09:30:37.041Z,1013.12
2019-06-10T09:31:45.576Z,1013.16
2019-06-10T09:32:48.527Z,1013.17
2019-06-10T09:33:53.282Z,1013.16
2019-06-10T09:34:57.414Z,1013.17
2019-06-10T09:35:58.418Z,1013.15
2019-06-10T09:37:03.510Z,1013.17
2019-06-10T09:38:07.248Z,1013.17
2019-06-10T09:39:12.477Z,1013.20
2019-06-10T09:40:16.244Z,1013.24
2019-06-10T09:41:30.904Z,1013.25
2019-06-10T09:42:25.159Z,1013.24
2019-06-10T09:43:29.532Z,1013.27
2019-06-10T09:44:34.113Z,1013.28
2019-06-10T09:45:38.379Z,1013.29
2019-06-10T09:46:47.011Z,1013.30
2019-06-10T09:47:51.842Z,1013.33
2019-06-10T09:48:55.757Z,1013.35
2019-06-10T09:49:56.113Z,1013.38
2019-06-10T09:51:02.510Z,1013.42
2019-06-10T09:52:05.063Z,1013.42
2019-06-10T09:53:09.495Z,1013.42
2019-06-10T09:54:13.902Z,1013.44
2019-06-10T09:55:18.299Z,1013.44
2019-06-10T09:56:23.491Z,1013.43
2019-06-10T09:57:27.272Z,1013.40
2019-06-10T09:58:32.907Z,1013.39
2019-06-10T09:59:36.129Z,1013.35
2019-06-10T10:00:41.807Z,1013.32
2019-06-10T10:01:49.051Z,1013.32
2019-06-10T10:02:52.074Z,1013.30
2019-06-10T10:03:59.797Z,1013.34
2019-06-10T10:04:58.771Z,1013.34
2019-06-10T10:06:11.726Z,1013.35
2019-06-10T10:07:07.485Z,1013.38
2019-06-10T10:08:12.669Z,1013.36
2019-06-10T10:09:16.158Z,1013.36
2019-06-10T10:10:23.425Z,1013.35
2019-06-10T10:11:28.451Z,1013.30
2019-06-10T10:12:32.176Z,1013.28
2019-06-10T10:13:35.268Z,1013.26
2019-06-10T10:14:38.464Z,1013.27
2019-06-10T10:15:43.579Z,1013.28
2019-06-10T10:16:52.251Z,1013.28
2019-06-10T10:17:56.230Z,1013.26
2019-06-10T10:19:00.250Z,1013.24
2019-06-10T10:20:03.035Z,1013.24
2019-06-10T10:21:05.096Z,1013.18
2019-06-10T10:22:11.695Z,1013.13
2019-06-10T10:23:14.107Z,1013.14
2019-06-10T10:24:18.521Z,1013.13
2019-06-10T10:25:23.554Z,1013.11
2019-06-10T10:26:27.387Z,1013.10
2019-06-10T10:27:32.378Z,1013.08
2019-06-10T10:28:36.277Z,1013.05
2019-06-10T10:29:43.642Z,1013.03
2019-06-10T10:30:48.734Z,1013.00
2019-06-10T10:31:52.402Z,1012.98
2019-06-10T10:32:54.132Z,1012.94
2019-06-10T10:33:58.567Z,1012.91
2019-06-10T10:35:04.023Z,1012.90
2019-06-10T10:36:07.433Z,1012.89
2019-06-10T10:37:12.347Z,1012.88
2019-06-10T10:38:16.423Z,1012.89
2019-06-10T10:39:24.336Z,1012.87
2019-06-10T10:40:25.254Z,1012.84
2019-06-10T10:41:32.145Z,1012.82
2019-06-10T10:42:45.028Z,1012.77
2019-06-10T10:43:38.574Z,1012.74
2019-06-10T10:44:46.146Z,1012.76
2019-06-10T10:45:50.325Z,1012.79
2019-06-10T10:46:54.053Z,1012.83
2019-06-10T10:47:57.744Z,1012.82
2019-06-10T10:49:02.717Z,1012.86
2019-06-10T10:50:05.374Z,1012.79
2019-06-10T10:51:12.662Z,1012.77
2019-06-10T10:52:14.359Z,1012.74
2019-06-10T10:53:18.891Z,1012.68
2019-06-10T10:54:33.017Z,1012.68
2019-06-10T10:55:27.798Z,1012.61
2019-06-10T10:56:33.985Z,1012.61
2019-06-10T10:57:36.783Z,1012.64
2019-06-10T10:58:43.713Z,1012.65
2019-06-10T10:59:46.559Z,1012.64
2019-06-10T11:00:53.986Z,1012.63
2019-06-10T11:01:54.678Z,1012.63
2019-06-10T11:02:59.202Z,1012.58
2019-06-10T11:04:03.980Z,1012.58
2019-06-10T11:05:08.154Z,1012.56
2019-06-10T11:06:13.003Z,1012.57
2019-06-10T11:07:17.073Z,1012.60
2019-06-10T11:08:22.828Z,1012.58
2019-06-10T11:09:26.232Z,1012.54
2019-06-10T11:10:32.998Z,1012.57
2019-06-10T11:11:35.121Z,1012.56
2019-06-10T11:12:39.519Z,1012.55
2019-06-10T11:13:45.396Z,1012.59
2019-06-10T11:14:49.253Z,1012.59
2019-06-10T11:15:55.370Z,1012.58
2019-06-10T11:16:58.979Z,1012.54
2019-06-10T11:18:03.877Z,1012.53
2019-06-10T11:19:06.569Z,1012.46
2019-06-10T11:20:13.564Z,1012.45
2019-06-10T11:21:15.471Z,1012.43
2019-06-10T11:22:22.898Z,1012.42
2019-06-10T11:23:24.416Z,1012.37
2019-06-10T11:24:36.327Z,1012.34
2019-06-10T11:25:33.374Z,1012.30
2019-06-10T11:26:37.923Z,1012.26
2019-06-10T11:27:43.131Z,1012.21
2019-06-10T11:28:47.477Z,1012.17
2019-06-10T11:29:53.622Z,1012.15
2019-06-10T11:30:58.249Z,1012.17
2019-06-10T11:32:02.303Z,1012.19
2019-06-10T11:33:04.645Z,1012.19
2019-06-10T11:34:09.145Z,1012.16
2019-06-10T11:35:13.593Z,1012.19
2019-06-10T11:36:18.064Z,1012.17
2019-06-10T11:37:23.131Z,1012.15
2019-06-10T11:38:27.049Z,1012.14
2019-06-10T11:39:33.289Z,1012.08
2019-06-10T11:40:35.966Z,1012.17
2019-06-10T11:41:42.878Z,1012.10
2019-06-10T11:42:46.200Z,1012.10
2019-06-10T11:43:51.159Z,1012.07
2019-06-10T11:44:57.385Z,1012.02
2019-06-10T11:46:03.467Z,1011.97
2019-06-10T11:47:03.257Z,1011.96
2019-06-10T11:48:07.244Z,1011.91
2019-06-10T11:49:12.565Z,1011.95
2019-06-10T11:50:16.183Z,1011.97
2019-06-10T11:51:23.249Z,1011.96
2019-06-10T11:52:25.147Z,1011.93
2019-06-10T11:53:29.577Z,1011.93
2019-06-10T11:54:50.329Z,1011.92
2019-06-10T11:55:38.819Z,1011.96
2019-06-10T11:56:42.928Z,1011.98
2019-06-10T11:57:47.861Z,1011.97
2019-06-10T11:58:55.115Z,1011.99
2019-06-10T11:59:57.774Z,1011.93
2019-06-10T12:01:03.772Z,1011.91
2019-06-10T12:02:06.175Z,1011.88
2019-06-10T12:03:09.701Z,1011.86
2019-06-10T12:04:14.217Z,1011.91
2019-06-10T12:05:20.500Z,1011.88
2019-06-10T12:06:23.159Z,1011.92
2019-06-10T12:07:27.577Z,1011.89
2019-06-10T12:08:32.845Z,1011.88
2019-06-10T12:09:36.516Z,1011.85
2019-06-10T12:10:43.238Z,1011.78
2019-06-10T12:11:45.432Z,1011.76
2019-06-10T12:12:54.053Z,1011.79
2019-06-10T12:14:01.935Z,1011.85
2019-06-10T12:15:01.265Z,1011.84
2019-06-10T12:17:40.487Z,1011.83
2019-06-10T12:18:13.203Z,1011.88
2019-06-10T12:19:16.719Z,1011.89
2019-06-10T12:20:22.860Z,1011.88
2019-06-10T12:21:25.646Z,1011.85
2019-06-10T12:22:30.135Z,1011.84
2019-06-10T12:23:34.620Z,1011.81
2019-06-10T12:24:39.111Z,1011.77
2019-06-10T12:25:43.803Z,1011.73
2019-06-10T12:26:48.046Z,1011.74
2019-06-10T12:27:57.405Z,1011.76
2019-06-10T12:28:59.375Z,1011.76
2019-06-10T12:30:04.782Z,1011.78
2019-06-10T12:31:07.151Z,1011.78
2019-06-10T12:32:13.357Z,1011.84
2019-06-10T12:33:21.387Z,1011.86
2019-06-10T12:34:19.479Z,1011.85
2019-06-10T12:35:23.818Z,1011.82
2019-06-10T12:36:28.264Z,1011.77
2019-06-10T12:37:33.841Z,1011.74
2019-06-10T12:38:37.191Z,1011.70
2019-06-10T12:39:42.325Z,1011.72
2019-06-10T12:40:46.126Z,1011.73
2019-06-10T12:41:53.195Z,1011.73
2019-06-10T12:42:57.686Z,1011.71
2019-06-10T12:44:00.359Z,1011.73
2019-06-10T12:45:07.634Z,1011.76
2019-06-10T12:46:08.556Z,1011.75
2019-06-10T12:47:12.993Z,1011.71
2019-06-10T12:48:17.457Z,1011.70
2019-06-10T12:49:21.932Z,1011.65
2019-06-10T12:50:26.408Z,1011.61
2019-06-10T12:51:36.829Z,1011.60
2019-06-10T12:52:40.082Z,1011.60
2019-06-10T12:53:44.483Z,1011.60
2019-06-10T12:54:48.952Z,1011.60
2019-06-10T12:55:55.477Z,1011.58
2019-06-10T12:56:58.089Z,1011.59
2019-06-10T12:58:04.195Z,1011.61
2019-06-10T12:59:09.864Z,1011.60
2019-06-10T13:00:20.635Z,1011.63